sensor_id;sensor_type;location;lat;lon;timestamp;temperature;humidity
7972;DHT22;4031;49.758;6.120;2022-08-05T00:01:42;19.80;99.90
7972;DHT22;4031;49.758;6.120;2022-08-05T00:04:08;19.80;99.90
7972;DHT22;4031;49.758;6.120;2022-08-05T00:06:34;19.80;99.90
7972;DHT22;4031;49.758;6.120;2022-08-05T00:09:00;19.80;99.90
7972;DHT22;4031;49.758;6.120;2022-08-05T00:11:27;19.80;99.90
7972;DHT22;4031;49.758;6.120;2022-08-05T00:13:52;19.80;99.90
7972;DHT22;4031;49.758;6.120;2022-08-05T00:16:18;19.80;99.90
7972;DHT22;4031;49.758;6.120;2022-08-05T00:18:46;19.80;99.90
7972;DHT22;4031;49.758;6.120;2022-08-05T00:21:13;19.70;99.90
7972;DHT22;4031;49.758;6.120;2022-08-05T00:23:41;19.70;99.90
7972;DHT22;4031;49.758;6.120;2022-08-05T00:26:08;19.60;99.90
7972;DHT22;4031;49.758;6.120;2022-08-05T00:28:34;19.60;99.90
7972;DHT22;4031;49.758;6.120;2022-08-05T00:31:00;19.70;99.90
7972;DHT22;4031;49.758;6.120;2022-08-05T00:33:26;19.60;99.90
7972;DHT22;4031;49.758;6.120;2022-08-05T00:35:52;19.60;99.90
7972;DHT22;4031;49.758;6.120;2022-08-05T00:38:17;19.60;99.90
7972;DHT22;4031;49.758;6.120;2022-08-05T00:40:49;19.60;99.90
7972;DHT22;4031;49.758;6.120;2022-08-05T00:43:16;19.60;99.90
7972;DHT22;4031;49.758;6.120;2022-08-05T00:45:42;19.60;99.90
7972;DHT22;4031;49.758;6.120;2022-08-05T00:48:13;19.60;99.90
7972;DHT22;4031;49.758;6.120;2022-08-05T00:50:41;19.60;99.90
7972;DHT22;4031;49.758;6.120;2022-08-05T00:53:09;19.60;99.90
7972;DHT22;4031;49.758;6.120;2022-08-05T00:55:35;19.60;99.90
7972;DHT22;4031;49.758;6.120;2022-08-05T00:58:01;19.60;99.90
7972;DHT22;4031;49.758;6.120;2022-08-05T01:00:28;19.50;99.90
7972;DHT22;4031;49.758;6.120;2022-08-05T01:02:56;19.50;99.90
7972;DHT22;4031;49.758;6.120;2022-08-05T01:05:23;19.50;99.90
7972;DHT22;4031;49.758;6.120;2022-08-05T01:07:49;19.50;99.90
7972;DHT22;4031;49.758;6.120;2022-08-05T01:10:19;19.60;99.90
7972;DHT22;4031;49.758;6.120;2022-08-05T01:12:49;19.70;99.90
7972;DHT22;4031;49.758;6.120;2022-08-05T01:15:21;19.60;99.90
7972;DHT22;4031;49.758;6.120;2022-08-05T01:17:56;19.80;99.90
7972;DHT22;4031;49.758;6.120;2022-08-05T01:29:03;19.90;99.90
7972;DHT22;4031;49.758;6.120;2022-08-05T01:31:38;20.00;99.90
7972;DHT22;4031;49.758;6.120;2022-08-05T01:34:18;20.00;99.90
7972;DHT22;4031;49.758;6.120;2022-08-05T01:36:53;19.90;99.90
7972;DHT22;4031;49.758;6.120;2022-08-05T01:39:24;20.00;99.90
7972;DHT22;4031;49.758;6.120;2022-08-05T01:41:52;20.00;99.90
7972;DHT22;4031;49.758;6.120;2022-08-05T01:44:20;19.90;99.90
7972;DHT22;4031;49.758;6.120;2022-08-05T01:46:47;19.90;99.90
7972;DHT22;4031;49.758;6.120;2022-08-05T01:49:20;19.80;99.90
7972;DHT22;4031;49.758;6.120;2022-08-05T01:51:47;19.80;99.90
7972;DHT22;4031;49.758;6.120;2022-08-05T01:54:16;19.80;99.90
7972;DHT22;4031;49.758;6.120;2022-08-05T01:56:44;19.80;99.90
7972;DHT22;4031;49.758;6.120;2022-08-05T01:59:14;19.90;99.90
7972;DHT22;4031;49.758;6.120;2022-08-05T02:01:42;19.90;99.90
7972;DHT22;4031;49.758;6.120;2022-08-05T02:04:13;19.80;99.90
7972;DHT22;4031;49.758;6.120;2022-08-05T02:06:41;19.80;99.90
7972;DHT22;4031;49.758;6.120;2022-08-05T02:09:07;19.80;99.90
7972;DHT22;4031;49.758;6.120;2022-08-05T02:11:48;19.80;99.90
7972;DHT22;4031;49.758;6.120;2022-08-05T02:14:26;19.70;99.90
7972;DHT22;4031;49.758;6.120;2022-08-05T02:17:02;19.80;99.90
7972;DHT22;4031;49.758;6.120;2022-08-05T02:19:36;19.80;99.90
7972;DHT22;4031;49.758;6.120;2022-08-05T02:22:12;19.80;99.90
7972;DHT22;4031;49.758;6.120;2022-08-05T02:24:46;19.80;99.90
7972;DHT22;4031;49.758;6.120;2022-08-05T02:27:15;19.80;99.90
7972;DHT22;4031;49.758;6.120;2022-08-05T02:29:44;19.80;99.90
7972;DHT22;4031;49.758;6.120;2022-08-05T02:32:10;19.80;99.90
7972;DHT22;4031;49.758;6.120;2022-08-05T02:34:37;19.90;99.90
7972;DHT22;4031;49.758;6.120;2022-08-05T02:37:07;19.90;99.90
7972;DHT22;4031;49.758;6.120;2022-08-05T02:39:36;19.80;99.90
7972;DHT22;4031;49.758;6.120;2022-08-05T02:42:04;19.80;99.90
7972;DHT22;4031;49.758;6.120;2022-08-05T02:44:33;19.90;99.90
7972;DHT22;4031;49.758;6.120;2022-08-05T02:47:02;19.80;99.90
7972;DHT22;4031;49.758;6.120;2022-08-05T02:49:38;19.90;99.90
7972;DHT22;4031;49.758;6.120;2022-08-05T02:52:12;19.80;99.90
7972;DHT22;4031;49.758;6.120;2022-08-05T02:54:41;19.90;99.90
7972;DHT22;4031;49.758;6.120;2022-08-05T02:57:10;19.90;99.90
7972;DHT22;4031;49.758;6.120;2022-08-05T02:59:41;19.90;99.90
7972;DHT22;4031;49.758;6.120;2022-08-05T03:02:09;19.90;99.90
7972;DHT22;4031;49.758;6.120;2022-08-05T03:04:36;19.90;99.90
7972;DHT22;4031;49.758;6.120;2022-08-05T03:07:03;19.80;99.90
7972;DHT22;4031;49.758;6.120;2022-08-05T03:09:29;19.70;99.90
7972;DHT22;4031;49.758;6.120;2022-08-05T03:11:55;19.60;99.90
7972;DHT22;4031;49.758;6.120;2022-08-05T03:14:21;19.60;99.90
7972;DHT22;4031;49.758;6.120;2022-08-05T03:16:47;19.50;99.90
7972;DHT22;4031;49.758;6.120;2022-08-05T03:19:13;19.50;99.90
7972;DHT22;4031;49.758;6.120;2022-08-05T03:21:38;19.50;99.90
7972;DHT22;4031;49.758;6.120;2022-08-05T03:24:05;19.50;99.90
7972;DHT22;4031;49.758;6.120;2022-08-05T03:26:31;19.40;99.90
7972;DHT22;4031;49.758;6.120;2022-08-05T03:28:57;19.40;99.90
7972;DHT22;4031;49.758;6.120;2022-08-05T03:31:24;19.40;99.90
7972;DHT22;4031;49.758;6.120;2022-08-05T03:33:50;19.30;99.90
7972;DHT22;4031;49.758;6.120;2022-08-05T03:36:16;19.30;99.90
7972;DHT22;4031;49.758;6.120;2022-08-05T03:38:42;19.30;99.90
7972;DHT22;4031;49.758;6.120;2022-08-05T03:41:08;19.30;99.90
7972;DHT22;4031;49.758;6.120;2022-08-05T03:43:35;19.30;99.90
7972;DHT22;4031;49.758;6.120;2022-08-05T03:46:01;19.30;99.90
7972;DHT22;4031;49.758;6.120;2022-08-05T03:48:28;19.30;99.90
7972;DHT22;4031;49.758;6.120;2022-08-05T03:51:11;19.30;99.90
7972;DHT22;4031;49.758;6.120;2022-08-05T03:53:40;19.30;99.90
7972;DHT22;4031;49.758;6.120;2022-08-05T03:56:25;19.20;99.90
7972;DHT22;4031;49.758;6.120;2022-08-05T03:59:05;19.20;99.90
7972;DHT22;4031;49.758;6.120;2022-08-05T04:01:36;19.20;99.90
7972;DHT22;4031;49.758;6.120;2022-08-05T04:04:05;19.20;99.90
7972;DHT22;4031;49.758;6.120;2022-08-05T04:06:32;19.20;99.90
7972;DHT22;4031;49.758;6.120;2022-08-05T04:09:00;19.20;99.90
7972;DHT22;4031;49.758;6.120;2022-08-05T04:11:27;19.20;99.90
7972;DHT22;4031;49.758;6.120;2022-08-05T04:13:53;19.20;99.90
7972;DHT22;4031;49.758;6.120;2022-08-05T04:16:20;19.20;99.90
7972;DHT22;4031;49.758;6.120;2022-08-05T04:18:45;19.20;99.90
7972;DHT22;4031;49.758;6.120;2022-08-05T04:21:11;19.10;99.90
7972;DHT22;4031;49.758;6.120;2022-08-05T04:23:37;19.10;99.90
7972;DHT22;4031;49.758;6.120;2022-08-05T04:26:03;19.10;99.90
7972;DHT22;4031;49.758;6.120;2022-08-05T04:28:29;19.10;99.90
7972;DHT22;4031;49.758;6.120;2022-08-05T04:30:56;19.10;99.90
7972;DHT22;4031;49.758;6.120;2022-08-05T04:33:22;19.10;99.90
7972;DHT22;4031;49.758;6.120;2022-08-05T04:35:47;19.10;99.90
7972;DHT22;4031;49.758;6.120;2022-08-05T04:38:13;19.10;99.90
7972;DHT22;4031;49.758;6.120;2022-08-05T04:40:39;19.10;99.90
7972;DHT22;4031;49.758;6.120;2022-08-05T04:43:06;19.10;99.90
7972;DHT22;4031;49.758;6.120;2022-08-05T04:45:32;19.10;99.90
7972;DHT22;4031;49.758;6.120;2022-08-05T04:48:05;19.00;99.90
7972;DHT22;4031;49.758;6.120;2022-08-05T04:50:44;19.00;99.90
7972;DHT22;4031;49.758;6.120;2022-08-05T04:53:13;19.00;99.90
7972;DHT22;4031;49.758;6.120;2022-08-05T04:55:40;18.90;99.90
7972;DHT22;4031;49.758;6.120;2022-08-05T04:58:08;18.90;99.90
7972;DHT22;4031;49.758;6.120;2022-08-05T05:00:37;18.90;99.90
7972;DHT22;4031;49.758;6.120;2022-08-05T05:03:05;18.90;99.90
7972;DHT22;4031;49.758;6.120;2022-08-05T05:05:31;18.90;99.90
7972;DHT22;4031;49.758;6.120;2022-08-05T05:08:03;18.90;99.90
7972;DHT22;4031;49.758;6.120;2022-08-05T05:10:32;18.90;99.90
7972;DHT22;4031;49.758;6.120;2022-08-05T05:13:02;18.80;99.90
7972;DHT22;4031;49.758;6.120;2022-08-05T05:15:27;18.80;99.90
7972;DHT22;4031;49.758;6.120;2022-08-05T05:17:53;18.90;99.90
7972;DHT22;4031;49.758;6.120;2022-08-05T05:20:19;18.80;99.90
7972;DHT22;4031;49.758;6.120;2022-08-05T05:22:44;18.90;99.90
7972;DHT22;4031;49.758;6.120;2022-08-05T05:25:11;18.90;99.90
7972;DHT22;4031;49.758;6.120;2022-08-05T05:27:37;19.00;99.90
7972;DHT22;4031;49.758;6.120;2022-08-05T05:30:04;19.00;99.90
7972;DHT22;4031;49.758;6.120;2022-08-05T05:32:31;19.10;99.90
7972;DHT22;4031;49.758;6.120;2022-08-05T05:34:57;19.10;99.90
7972;DHT22;4031;49.758;6.120;2022-08-05T05:37:22;19.10;99.90
7972;DHT22;4031;49.758;6.120;2022-08-05T05:39:48;19.00;99.90
7972;DHT22;4031;49.758;6.120;2022-08-05T05:42:14;19.00;99.90
7972;DHT22;4031;49.758;6.120;2022-08-05T05:44:39;19.00;99.90
7972;DHT22;4031;49.758;6.120;2022-08-05T05:47:05;19.00;99.90
7972;DHT22;4031;49.758;6.120;2022-08-05T05:49:31;19.00;99.90
7972;DHT22;4031;49.758;6.120;2022-08-05T05:51:57;19.00;99.90
7972;DHT22;4031;49.758;6.120;2022-08-05T05:54:23;19.00;99.90
7972;DHT22;4031;49.758;6.120;2022-08-05T05:56:48;19.00;99.90
7972;DHT22;4031;49.758;6.120;2022-08-05T05:59:14;19.00;99.90
7972;DHT22;4031;49.758;6.120;2022-08-05T06:01:41;19.10;99.90
7972;DHT22;4031;49.758;6.120;2022-08-05T06:04:09;19.10;99.90
7972;DHT22;4031;49.758;6.120;2022-08-05T06:06:35;19.10;99.90
7972;DHT22;4031;49.758;6.120;2022-08-05T06:09:03;19.20;99.90
7972;DHT22;4031;49.758;6.120;2022-08-05T06:11:30;19.10;99.90
7972;DHT22;4031;49.758;6.120;2022-08-05T06:13:57;19.10;99.90
7972;DHT22;4031;49.758;6.120;2022-08-05T06:16:23;19.10;99.90
7972;DHT22;4031;49.758;6.120;2022-08-05T06:18:49;19.10;99.90
7972;DHT22;4031;49.758;6.120;2022-08-05T06:21:16;19.10;99.90
7972;DHT22;4031;49.758;6.120;2022-08-05T06:23:42;19.00;99.90
7972;DHT22;4031;49.758;6.120;2022-08-05T06:26:08;19.00;99.90
7972;DHT22;4031;49.758;6.120;2022-08-05T06:28:33;19.00;99.90
7972;DHT22;4031;49.758;6.120;2022-08-05T06:30:59;19.00;99.90
7972;DHT22;4031;49.758;6.120;2022-08-05T06:33:25;19.00;99.90
7972;DHT22;4031;49.758;6.120;2022-08-05T06:35:51;19.00;99.90
7972;DHT22;4031;49.758;6.120;2022-08-05T06:38:16;19.00;99.90
7972;DHT22;4031;49.758;6.120;2022-08-05T06:40:42;19.10;99.90
7972;DHT22;4031;49.758;6.120;2022-08-05T06:43:08;19.20;99.90
7972;DHT22;4031;49.758;6.120;2022-08-05T06:45:34;19.30;99.90
7972;DHT22;4031;49.758;6.120;2022-08-05T06:48:00;19.40;99.90
7972;DHT22;4031;49.758;6.120;2022-08-05T06:50:26;19.50;99.90
7972;DHT22;4031;49.758;6.120;2022-08-05T06:52:52;19.60;99.90
7972;DHT22;4031;49.758;6.120;2022-08-05T06:55:18;19.70;99.90
7972;DHT22;4031;49.758;6.120;2022-08-05T06:57:44;19.60;99.90
7972;DHT22;4031;49.758;6.120;2022-08-05T07:00:10;19.60;99.90
7972;DHT22;4031;49.758;6.120;2022-08-05T07:02:46;19.60;99.90
7972;DHT22;4031;49.758;6.120;2022-08-05T07:05:13;19.60;99.90
7972;DHT22;4031;49.758;6.120;2022-08-05T07:07:39;19.60;99.90
7972;DHT22;4031;49.758;6.120;2022-08-05T07:10:06;19.60;99.90
7972;DHT22;4031;49.758;6.120;2022-08-05T07:12:33;19.70;99.90
7972;DHT22;4031;49.758;6.120;2022-08-05T07:15:20;19.70;99.90
7972;DHT22;4031;49.758;6.120;2022-08-05T07:18:04;19.60;99.90
7972;DHT22;4031;49.758;6.120;2022-08-05T07:20:30;19.60;99.90
7972;DHT22;4031;49.758;6.120;2022-08-05T07:22:55;19.60;99.90
7972;DHT22;4031;49.758;6.120;2022-08-05T07:25:21;19.60;99.90
7972;DHT22;4031;49.758;6.120;2022-08-05T07:27:51;19.60;99.90
7972;DHT22;4031;49.758;6.120;2022-08-05T07:30:18;19.70;99.90
7972;DHT22;4031;49.758;6.120;2022-08-05T07:32:43;19.70;99.90
7972;DHT22;4031;49.758;6.120;2022-08-05T07:35:11;19.80;99.90
7972;DHT22;4031;49.758;6.120;2022-08-05T07:37:38;20.00;99.90
7972;DHT22;4031;49.758;6.120;2022-08-05T07:40:05;20.10;99.90
7972;DHT22;4031;49.758;6.120;2022-08-05T07:42:32;20.30;99.90
7972;DHT22;4031;49.758;6.120;2022-08-05T07:44:57;20.60;99.90
7972;DHT22;4031;49.758;6.120;2022-08-05T07:47:23;21.00;99.90
7972;DHT22;4031;49.758;6.120;2022-08-05T07:49:49;21.20;99.90
7972;DHT22;4031;49.758;6.120;2022-08-05T07:52:19;21.40;99.90
7972;DHT22;4031;49.758;6.120;2022-08-05T07:54:45;21.50;99.90
7972;DHT22;4031;49.758;6.120;2022-08-05T07:57:11;21.40;99.90
7972;DHT22;4031;49.758;6.120;2022-08-05T07:59:37;21.30;99.90
7972;DHT22;4031;49.758;6.120;2022-08-05T08:02:03;21.20;99.90
7972;DHT22;4031;49.758;6.120;2022-08-05T08:04:29;21.20;99.90
7972;DHT22;4031;49.758;6.120;2022-08-05T08:06:55;21.10;99.90
7972;DHT22;4031;49.758;6.120;2022-08-05T08:09:21;21.20;99.90
7972;DHT22;4031;49.758;6.120;2022-08-05T08:11:48;21.40;99.90
7972;DHT22;4031;49.758;6.120;2022-08-05T08:14:15;21.60;99.90
7972;DHT22;4031;49.758;6.120;2022-08-05T08:16:41;21.60;99.90
7972;DHT22;4031;49.758;6.120;2022-08-05T08:19:07;21.60;99.90
7972;DHT22;4031;49.758;6.120;2022-08-05T08:21:33;21.60;99.90
7972;DHT22;4031;49.758;6.120;2022-08-05T08:23:59;21.50;99.90
7972;DHT22;4031;49.758;6.120;2022-08-05T08:26:24;21.40;99.90
7972;DHT22;4031;49.758;6.120;2022-08-05T08:28:50;21.30;99.90
7972;DHT22;4031;49.758;6.120;2022-08-05T08:31:16;21.40;99.90
7972;DHT22;4031;49.758;6.120;2022-08-05T08:33:43;21.60;99.90
7972;DHT22;4031;49.758;6.120;2022-08-05T08:36:10;21.70;99.90
7972;DHT22;4031;49.758;6.120;2022-08-05T08:38:35;21.70;99.90
7972;DHT22;4031;49.758;6.120;2022-08-05T08:41:04;21.80;99.90
7972;DHT22;4031;49.758;6.120;2022-08-05T08:43:33;21.90;99.90
7972;DHT22;4031;49.758;6.120;2022-08-05T08:46:02;22.10;99.90
7972;DHT22;4031;49.758;6.120;2022-08-05T08:48:31;22.60;99.90
7972;DHT22;4031;49.758;6.120;2022-08-05T08:50:58;23.00;99.90
7972;DHT22;4031;49.758;6.120;2022-08-05T08:53:26;23.60;99.90
7972;DHT22;4031;49.758;6.120;2022-08-05T08:55:53;24.50;99.90
7972;DHT22;4031;49.758;6.120;2022-08-05T08:58:19;24.80;99.90
7972;DHT22;4031;49.758;6.120;2022-08-05T09:00:46;25.00;99.90
7972;DHT22;4031;49.758;6.120;2022-08-05T09:03:12;24.70;99.90
7972;DHT22;4031;49.758;6.120;2022-08-05T09:05:38;24.60;99.90
7972;DHT22;4031;49.758;6.120;2022-08-05T09:08:04;24.50;99.90
7972;DHT22;4031;49.758;6.120;2022-08-05T09:10:30;24.50;99.90
7972;DHT22;4031;49.758;6.120;2022-08-05T09:12:56;24.90;99.90
7972;DHT22;4031;49.758;6.120;2022-08-05T09:15:22;25.50;99.90
7972;DHT22;4031;49.758;6.120;2022-08-05T09:17:49;25.50;99.90
7972;DHT22;4031;49.758;6.120;2022-08-05T09:20:15;25.30;99.90
7972;DHT22;4031;49.758;6.120;2022-08-05T09:23:10;25.20;99.90
7972;DHT22;4031;49.758;6.120;2022-08-05T09:25:42;25.40;99.90
7972;DHT22;4031;49.758;6.120;2022-08-05T09:28:17;26.10;99.90
7972;DHT22;4031;49.758;6.120;2022-08-05T09:30:55;26.50;99.90
7972;DHT22;4031;49.758;6.120;2022-08-05T09:33:22;27.40;99.90
7972;DHT22;4031;49.758;6.120;2022-08-05T09:36:07;28.20;99.90
7972;DHT22;4031;49.758;6.120;2022-08-05T09:38:33;28.70;99.90
7972;DHT22;4031;49.758;6.120;2022-08-05T09:41:04;29.40;99.90
7972;DHT22;4031;49.758;6.120;2022-08-05T09:43:32;29.50;99.90
7972;DHT22;4031;49.758;6.120;2022-08-05T09:46:01;29.80;99.90
7972;DHT22;4031;49.758;6.120;2022-08-05T09:48:33;29.60;99.90
7972;DHT22;4031;49.758;6.120;2022-08-05T09:51:01;29.20;99.90
7972;DHT22;4031;49.758;6.120;2022-08-05T09:53:46;29.10;99.90
7972;DHT22;4031;49.758;6.120;2022-08-05T09:56:13;29.30;99.90
7972;DHT22;4031;49.758;6.120;2022-08-05T09:59:00;30.00;99.90
7972;DHT22;4031;49.758;6.120;2022-08-05T10:01:35;29.90;99.90
7972;DHT22;4031;49.758;6.120;2022-08-05T10:04:04;29.60;99.90
7972;DHT22;4031;49.758;6.120;2022-08-05T10:06:32;29.00;99.90
7972;DHT22;4031;49.758;6.120;2022-08-05T10:09:14;28.20;99.90
7972;DHT22;4031;49.758;6.120;2022-08-05T10:11:41;27.40;99.90
7972;DHT22;4031;49.758;6.120;2022-08-05T10:14:28;27.10;99.90
7972;DHT22;4031;49.758;6.120;2022-08-05T10:17:12;27.20;99.90
7972;DHT22;4031;49.758;6.120;2022-08-05T10:19:38;26.90;99.90
7972;DHT22;4031;49.758;6.120;2022-08-05T10:22:07;26.20;99.90
7972;DHT22;4031;49.758;6.120;2022-08-05T10:24:33;25.40;99.90
7972;DHT22;4031;49.758;6.120;2022-08-05T10:27:00;24.90;99.90
7972;DHT22;4031;49.758;6.120;2022-08-05T10:29:26;24.50;99.90
7972;DHT22;4031;49.758;6.120;2022-08-05T10:31:54;25.10;99.90
7972;DHT22;4031;49.758;6.120;2022-08-05T10:34:21;26.00;99.90
7972;DHT22;4031;49.758;6.120;2022-08-05T10:36:47;27.00;99.90
7972;DHT22;4031;49.758;6.120;2022-08-05T10:39:17;27.80;99.90
7972;DHT22;4031;49.758;6.120;2022-08-05T10:42:11;28.80;99.90
7972;DHT22;4031;49.758;6.120;2022-08-05T10:44:43;28.30;99.90
7972;DHT22;4031;49.758;6.120;2022-08-05T10:47:11;27.80;99.90
7972;DHT22;4031;49.758;6.120;2022-08-05T10:50:07;28.20;99.90
7972;DHT22;4031;49.758;6.120;2022-08-05T10:52:45;28.20;99.90
7972;DHT22;4031;49.758;6.120;2022-08-05T10:55:25;27.90;99.90
7972;DHT22;4031;49.758;6.120;2022-08-05T10:58:10;27.20;99.90
7972;DHT22;4031;49.758;6.120;2022-08-05T11:00:36;27.00;99.90
7972;DHT22;4031;49.758;6.120;2022-08-05T11:05:32;28.00;99.90
7972;DHT22;4031;49.758;6.120;2022-08-05T11:08:09;28.50;99.90
7972;DHT22;4031;49.758;6.120;2022-08-05T11:10:37;28.50;99.90
7972;DHT22;4031;49.758;6.120;2022-08-05T11:13:04;28.00;99.90
7972;DHT22;4031;49.758;6.120;2022-08-05T11:15:33;27.60;99.90
7972;DHT22;4031;49.758;6.120;2022-08-05T11:20:50;26.80;99.90
7972;DHT22;4031;49.758;6.120;2022-08-05T11:26:05;28.30;99.90
7972;DHT22;4031;49.758;6.120;2022-08-05T11:33:38;28.70;99.90
7972;DHT22;4031;49.758;6.120;2022-08-05T11:36:59;29.10;99.90
7972;DHT22;4031;49.758;6.120;2022-08-05T11:39:48;29.90;99.90
7972;DHT22;4031;49.758;6.120;2022-08-05T11:42:15;29.70;99.70
7972;DHT22;4031;49.758;6.120;2022-08-05T11:44:42;29.00;99.40
7972;DHT22;4031;49.758;6.120;2022-08-05T11:47:09;29.00;98.50
7972;DHT22;4031;49.758;6.120;2022-08-05T11:49:35;29.20;98.40
7972;DHT22;4031;49.758;6.120;2022-08-05T11:52:01;29.60;98.20
7972;DHT22;4031;49.758;6.120;2022-08-05T11:54:31;29.90;99.70
7972;DHT22;4031;49.758;6.120;2022-08-05T11:57:03;30.20;98.40
7972;DHT22;4031;49.758;6.120;2022-08-05T11:59:31;29.90;97.40
7972;DHT22;4031;49.758;6.120;2022-08-05T12:02:05;29.60;95.00
7972;DHT22;4031;49.758;6.120;2022-08-05T12:04:46;29.60;93.30
7972;DHT22;4031;49.758;6.120;2022-08-05T12:07:15;28.90;95.20
7972;DHT22;4031;49.758;6.120;2022-08-05T12:12:23;28.30;95.00
7972;DHT22;4031;49.758;6.120;2022-08-05T12:14:52;29.50;95.10
7972;DHT22;4031;49.758;6.120;2022-08-05T12:17:18;30.40;95.10
7972;DHT22;4031;49.758;6.120;2022-08-05T12:19:50;30.50;95.20
7972;DHT22;4031;49.758;6.120;2022-08-05T12:22:20;30.50;91.90
7972;DHT22;4031;49.758;6.120;2022-08-05T12:24:48;30.60;92.00
7972;DHT22;4031;49.758;6.120;2022-08-05T12:27:22;30.40;90.80
7972;DHT22;4031;49.758;6.120;2022-08-05T12:30:04;29.90;91.10
7972;DHT22;4031;49.758;6.120;2022-08-05T12:32:41;29.20;89.70
7972;DHT22;4031;49.758;6.120;2022-08-05T12:35:11;28.30;91.40
7972;DHT22;4031;49.758;6.120;2022-08-05T12:37:40;27.90;94.00
7972;DHT22;4031;49.758;6.120;2022-08-05T12:40:08;27.70;94.20
7972;DHT22;4031;49.758;6.120;2022-08-05T12:42:35;27.90;94.70
7972;DHT22;4031;49.758;6.120;2022-08-05T12:45:08;28.50;94.20
7972;DHT22;4031;49.758;6.120;2022-08-05T12:47:35;28.20;93.10
7972;DHT22;4031;49.758;6.120;2022-08-05T12:50:14;27.90;94.70
7972;DHT22;4031;49.758;6.120;2022-08-05T12:52:40;28.60;93.80
7972;DHT22;4031;49.758;6.120;2022-08-05T12:55:21;28.80;92.70
7972;DHT22;4031;49.758;6.120;2022-08-05T12:57:48;28.40;92.20
7972;DHT22;4031;49.758;6.120;2022-08-05T13:00:21;27.30;92.80
7972;DHT22;4031;49.758;6.120;2022-08-05T13:02:48;27.00;93.60
7972;DHT22;4031;49.758;6.120;2022-08-05T13:05:14;27.30;92.60
7972;DHT22;4031;49.758;6.120;2022-08-05T13:07:41;27.50;93.60
7972;DHT22;4031;49.758;6.120;2022-08-05T13:10:13;28.10;92.80
7972;DHT22;4031;49.758;6.120;2022-08-05T13:12:41;28.40;91.10
7972;DHT22;4031;49.758;6.120;2022-08-05T13:15:10;28.80;90.80
7972;DHT22;4031;49.758;6.120;2022-08-05T13:17:36;28.70;90.30
7972;DHT22;4031;49.758;6.120;2022-08-05T13:20:13;29.10;90.80
7972;DHT22;4031;49.758;6.120;2022-08-05T13:22:48;29.20;90.10
7972;DHT22;4031;49.758;6.120;2022-08-05T13:25:16;28.60;90.30
7972;DHT22;4031;49.758;6.120;2022-08-05T13:27:51;27.90;90.20
7972;DHT22;4031;49.758;6.120;2022-08-05T13:30:20;27.10;90.70
7972;DHT22;4031;49.758;6.120;2022-08-05T13:32:48;26.50;91.20
7972;DHT22;4031;49.758;6.120;2022-08-05T13:35:15;27.00;92.70
7972;DHT22;4031;49.758;6.120;2022-08-05T13:37:41;27.70;87.70
7972;DHT22;4031;49.758;6.120;2022-08-05T13:40:08;28.60;86.90
7972;DHT22;4031;49.758;6.120;2022-08-05T13:42:35;29.40;86.10
7972;DHT22;4031;49.758;6.120;2022-08-05T13:45:01;29.70;82.80
7972;DHT22;4031;49.758;6.120;2022-08-05T13:47:27;29.50;79.20
7972;DHT22;4031;49.758;6.120;2022-08-05T13:49:53;29.90;80.80
7972;DHT22;4031;49.758;6.120;2022-08-05T13:52:21;29.40;79.40
7972;DHT22;4031;49.758;6.120;2022-08-05T13:54:50;28.20;82.10
7972;DHT22;4031;49.758;6.120;2022-08-05T13:57:17;27.60;80.40
7972;DHT22;4031;49.758;6.120;2022-08-05T13:59:43;27.70;80.40
7972;DHT22;4031;49.758;6.120;2022-08-05T14:02:10;28.20;80.30
7972;DHT22;4031;49.758;6.120;2022-08-05T14:04:39;28.80;81.80
7972;DHT22;4031;49.758;6.120;2022-08-05T14:07:27;29.10;78.60
7972;DHT22;4031;49.758;6.120;2022-08-05T14:09:54;29.20;79.00
7972;DHT22;4031;49.758;6.120;2022-08-05T14:12:19;29.30;79.40
7972;DHT22;4031;49.758;6.120;2022-08-05T14:14:45;29.10;80.40
7972;DHT22;4031;49.758;6.120;2022-08-05T14:17:11;28.50;79.40
7972;DHT22;4031;49.758;6.120;2022-08-05T14:19:39;28.00;78.40
7972;DHT22;4031;49.758;6.120;2022-08-05T14:22:05;27.40;80.50
7972;DHT22;4031;49.758;6.120;2022-08-05T14:24:30;27.50;80.10
7972;DHT22;4031;49.758;6.120;2022-08-05T14:26:56;27.60;78.60
7972;DHT22;4031;49.758;6.120;2022-08-05T14:29:22;27.80;77.40
7972;DHT22;4031;49.758;6.120;2022-08-05T14:31:48;28.30;79.00
7972;DHT22;4031;49.758;6.120;2022-08-05T14:34:13;28.60;76.20
7972;DHT22;4031;49.758;6.120;2022-08-05T14:36:39;28.30;74.10
7972;DHT22;4031;49.758;6.120;2022-08-05T14:39:05;28.00;73.10
7972;DHT22;4031;49.758;6.120;2022-08-05T14:41:31;27.90;73.20
7972;DHT22;4031;49.758;6.120;2022-08-05T14:43:57;28.00;74.60
7972;DHT22;4031;49.758;6.120;2022-08-05T14:46:24;28.10;73.00
7972;DHT22;4031;49.758;6.120;2022-08-05T14:48:51;28.40;73.30
7972;DHT22;4031;49.758;6.120;2022-08-05T14:51:17;28.80;72.80
7972;DHT22;4031;49.758;6.120;2022-08-05T14:53:44;28.90;70.40
7972;DHT22;4031;49.758;6.120;2022-08-05T14:56:10;28.90;72.70
7972;DHT22;4031;49.758;6.120;2022-08-05T14:58:36;29.00;73.80
7972;DHT22;4031;49.758;6.120;2022-08-05T15:01:02;29.20;71.50
7972;DHT22;4031;49.758;6.120;2022-08-05T15:03:29;29.10;69.00
7972;DHT22;4031;49.758;6.120;2022-08-05T15:05:55;28.90;69.40
7972;DHT22;4031;49.758;6.120;2022-08-05T15:08:21;28.90;72.50
7972;DHT22;4031;49.758;6.120;2022-08-05T15:10:47;28.50;68.10
7972;DHT22;4031;49.758;6.120;2022-08-05T15:13:13;27.70;69.30
7972;DHT22;4031;49.758;6.120;2022-08-05T15:15:39;27.00;71.60
7972;DHT22;4031;49.758;6.120;2022-08-05T15:18:05;26.50;72.20
7972;DHT22;4031;49.758;6.120;2022-08-05T15:20:30;26.30;72.40
7972;DHT22;4031;49.758;6.120;2022-08-05T15:23:05;26.40;73.90
7972;DHT22;4031;49.758;6.120;2022-08-05T15:25:32;26.70;71.30
7972;DHT22;4031;49.758;6.120;2022-08-05T15:27:58;27.10;69.90
7972;DHT22;4031;49.758;6.120;2022-08-05T15:30:24;27.50;72.90
7972;DHT22;4031;49.758;6.120;2022-08-05T15:32:50;27.90;72.40
7972;DHT22;4031;49.758;6.120;2022-08-05T15:35:16;28.10;70.10
7972;DHT22;4031;49.758;6.120;2022-08-05T15:37:42;28.40;68.40
7972;DHT22;4031;49.758;6.120;2022-08-05T15:40:08;28.40;67.60
7972;DHT22;4031;49.758;6.120;2022-08-05T15:42:34;27.70;66.20
7972;DHT22;4031;49.758;6.120;2022-08-05T15:45:00;27.10;67.90
7972;DHT22;4031;49.758;6.120;2022-08-05T15:47:26;27.30;69.90
7972;DHT22;4031;49.758;6.120;2022-08-05T15:49:51;27.60;68.20
7972;DHT22;4031;49.758;6.120;2022-08-05T15:52:20;27.60;66.10
7972;DHT22;4031;49.758;6.120;2022-08-05T15:54:46;27.70;65.60
7972;DHT22;4031;49.758;6.120;2022-08-05T15:57:12;27.50;65.40
7972;DHT22;4031;49.758;6.120;2022-08-05T15:59:39;27.60;67.40
7972;DHT22;4031;49.758;6.120;2022-08-05T16:02:05;27.70;66.60
7972;DHT22;4031;49.758;6.120;2022-08-05T16:04:32;27.90;66.40
7972;DHT22;4031;49.758;6.120;2022-08-05T16:06:57;27.90;65.70
7972;DHT22;4031;49.758;6.120;2022-08-05T16:09:24;27.30;66.60
7972;DHT22;4031;49.758;6.120;2022-08-05T16:11:50;26.60;67.40
7972;DHT22;4031;49.758;6.120;2022-08-05T16:14:16;26.10;69.00
7972;DHT22;4031;49.758;6.120;2022-08-05T16:16:41;25.90;70.20
7972;DHT22;4031;49.758;6.120;2022-08-05T16:19:07;25.80;72.00
7972;DHT22;4031;49.758;6.120;2022-08-05T16:21:33;25.90;71.80
7972;DHT22;4031;49.758;6.120;2022-08-05T16:23:59;25.90;73.90
7972;DHT22;4031;49.758;6.120;2022-08-05T16:26:24;25.90;73.70
7972;DHT22;4031;49.758;6.120;2022-08-05T16:28:50;25.80;75.80
7972;DHT22;4031;49.758;6.120;2022-08-05T16:31:16;25.70;76.60
7972;DHT22;4031;49.758;6.120;2022-08-05T16:33:42;25.50;76.20
7972;DHT22;4031;49.758;6.120;2022-08-05T16:36:09;25.40;77.90